createdAt,value
2019-03-17T00:02:04.688Z,51.21
2019-03-17T00:04:37.463Z,51.55
2019-03-17T00:07:10.411Z,49.82
2019-03-17T00:09:43.318Z,46.68
2019-03-17T00:12:16.269Z,49.37
2019-03-17T00:14:49.163Z,48.71
2019-03-17T00:17:24.971Z,48.70
2019-03-17T00:19:56.451Z,47.18
2019-03-17T00:22:29.348Z,43.69
2019-03-17T00:25:09.288Z,42.90
2019-03-17T00:27:36.659Z,42.54
2019-03-17T00:30:10.317Z,43.82
2019-03-17T00:32:43.197Z,45.57
2019-03-17T00:35:16.087Z,48.33
2019-03-17T00:37:49.013Z,50.51
2019-03-17T00:40:21.859Z,48.70
2019-03-17T00:42:54.732Z,48.30
2019-03-17T00:45:27.519Z,51.68
2019-03-17T00:48:00.426Z,51.72
2019-03-17T00:50:33.363Z,52.02
2019-03-17T00:53:06.372Z,50.78
2019-03-17T00:55:38.455Z,47.17
2019-03-17T00:58:11.492Z,48.19
2019-03-17T01:00:44.482Z,53.70
2019-03-17T01:03:17.419Z,51.12
2019-03-17T01:05:49.806Z,51.25
2019-03-17T01:08:22.620Z,51.28
2019-03-17T01:10:54.830Z,50.73
2019-03-17T01:13:27.655Z,47.43
2019-03-17T01:16:00.714Z,47.80
2019-03-17T01:18:33.732Z,51.25
2019-03-17T01:21:06.616Z,49.35
2019-03-17T01:23:39.594Z,49.84
2019-03-17T01:26:12.396Z,46.85
2019-03-17T01:28:45.288Z,46.23
2019-03-17T01:31:18.213Z,47.75
2019-03-17T01:33:51.032Z,43.91
2019-03-17T01:36:23.958Z,42.90
2019-03-17T01:38:56.849Z,44.05
2019-03-17T01:41:29.634Z,45.00
2019-03-17T01:44:02.414Z,50.29
2019-03-17T01:46:34.446Z,50.61
2019-03-17T01:49:06.908Z,49.08
2019-03-17T01:51:39.752Z,46.83
2019-03-17T01:54:12.591Z,49.60
2019-03-17T01:56:47.312Z,46.20
2019-03-17T01:59:20.153Z,47.29
2019-03-17T02:01:53.051Z,47.10
2019-03-17T02:04:25.526Z,46.32
2019-03-17T02:06:58.397Z,51.03
2019-03-17T02:09:31.188Z,51.45
2019-03-17T02:12:03.946Z,50.13
2019-03-17T02:14:36.792Z,46.93
2019-03-17T02:17:09.627Z,49.25
2019-03-17T02:19:42.535Z,46.86
2019-03-17T02:22:15.469Z,44.74
2019-03-17T02:24:48.517Z,45.95
2019-03-17T02:27:21.479Z,48.29
2019-03-17T02:29:54.536Z,50.87
2019-03-17T02:32:27.349Z,50.40
2019-03-17T02:35:00.495Z,50.63
2019-03-17T02:37:33.502Z,50.64
2019-03-17T02:40:06.699Z,48.67
2019-03-17T02:42:39.756Z,50.78
2019-03-17T02:45:13.226Z,51.49
2019-03-17T02:47:46.167Z,54.43
2019-03-17T02:50:19.035Z,54.58
2019-03-17T02:52:51.879Z,54.98
2019-03-17T02:55:24.737Z,52.50
2019-03-17T02:57:57.807Z,52.58
2019-03-17T03:00:30.801Z,49.65
2019-03-17T03:03:03.752Z,51.25
2019-03-17T03:05:36.636Z,51.41
2019-03-17T03:08:09.564Z,52.98
2019-03-17T03:10:42.452Z,52.74
2019-03-17T03:13:15.316Z,50.49
2019-03-17T03:15:48.641Z,48.68
2019-03-17T03:18:21.603Z,52.38
2019-03-17T03:20:54.634Z,53.90
2019-03-17T03:23:27.641Z,51.40
2019-03-17T03:26:00.639Z,53.50
2019-03-17T03:28:33.582Z,49.95
2019-03-17T03:31:06.538Z,48.49
2019-03-17T03:33:39.473Z,44.91
2019-03-17T03:36:12.392Z,45.51
2019-03-17T03:38:45.374Z,46.85
2019-03-17T03:41:18.398Z,53.81
2019-03-17T03:43:51.427Z,53.89
2019-03-17T03:46:25.305Z,54.16
2019-03-17T03:48:58.215Z,54.50
2019-03-17T03:51:31.100Z,52.89
2019-03-17T03:54:04.059Z,51.25
2019-03-17T03:56:37.026Z,51.96
2019-03-17T03:59:09.911Z,50.71
2019-03-17T04:01:42.921Z,50.57
2019-03-17T04:04:15.756Z,49.61
2019-03-17T04:06:48.562Z,50.57
2019-03-17T04:09:21.508Z,50.76
2019-03-17T04:11:54.498Z,53.32
2019-03-17T04:14:32.682Z,54.18
2019-03-17T04:17:05.498Z,51.00
2019-03-17T04:19:38.271Z,49.67
2019-03-17T04:22:11.022Z,52.47
2019-03-17T04:24:43.778Z,54.36
2019-03-17T04:27:16.567Z,54.88
2019-03-17T04:29:49.403Z,53.65
2019-03-17T04:32:22.301Z,56.49
2019-03-17T04:34:55.268Z,56.91
2019-03-17T04:37:28.102Z,57.79
2019-03-17T04:40:01.004Z,57.23
2019-03-17T04:42:33.754Z,56.19
2019-03-17T04:45:06.938Z,53.71
2019-03-17T04:47:39.732Z,52.60
2019-03-17T04:50:12.724Z,57.44
2019-03-17T04:52:45.569Z,58.12
2019-03-17T04:55:18.462Z,56.43
2019-03-17T04:57:51.280Z,56.96
2019-03-17T05:00:24.188Z,55.46
2019-03-17T05:02:57.263Z,55.95
2019-03-17T05:05:30.228Z,52.04
2019-03-17T05:08:03.155Z,51.73
2019-03-17T05:10:36.073Z,54.56
2019-03-17T05:13:08.933Z,54.78
2019-03-17T05:15:41.303Z,55.20
2019-03-17T05:18:14.208Z,53.72
2019-03-17T05:20:47.172Z,53.87
2019-03-17T05:23:19.310Z,54.89
2019-03-17T05:25:52.231Z,54.98
2019-03-17T05:28:25.142Z,57.06
2019-03-17T05:30:57.993Z,54.32
2019-03-17T05:33:30.221Z,52.49
2019-03-17T05:36:03.062Z,57.24
2019-03-17T05:38:35.873Z,56.62
2019-03-17T05:41:08.820Z,52.97
2019-03-17T05:43:41.765Z,53.26
2019-03-17T05:46:14.581Z,55.80
2019-03-17T05:48:47.350Z,56.32
2019-03-17T05:51:20.233Z,58.91
2019-03-17T05:53:53.129Z,59.20
2019-03-17T05:56:25.577Z,58.36
2019-03-17T05:58:58.474Z,55.98
2019-03-17T06:01:31.330Z,56.80
2019-03-17T06:04:04.297Z,56.20
2019-03-17T06:06:37.168Z,57.44
2019-03-17T06:09:10.073Z,58.69
2019-03-17T06:11:43.065Z,56.75
2019-03-17T06:14:16.085Z,56.07
2019-03-17T06:16:49.037Z,55.22
2019-03-17T06:19:22.054Z,55.61
2019-03-17T06:21:55.023Z,55.76
2019-03-17T06:24:27.983Z,52.21
2019-03-17T06:27:00.898Z,57.33
2019-03-17T06:29:33.815Z,58.25
2019-03-17T06:32:06.867Z,57.71
2019-03-17T06:34:39.727Z,56.59
2019-03-17T06:37:12.765Z,55.99
2019-03-17T06:39:45.654Z,56.21
2019-03-17T06:42:18.507Z,54.55
2019-03-17T06:44:51.287Z,54.84
2019-03-17T06:47:24.174Z,51.25
2019-03-17T06:49:57.226Z,49.46
2019-03-17T06:52:30.148Z,51.82
2019-03-17T06:55:03.068Z,49.57
2019-03-17T06:57:36.000Z,43.97
2019-03-17T07:00:09.467Z,42.10
2019-03-17T07:02:42.425Z,47.31
2019-03-17T07:05:15.370Z,44.81
2019-03-17T07:07:48.406Z,38.55
2019-03-17T07:10:21.308Z,43.73
2019-03-17T07:12:54.186Z,41.29
2019-03-17T07:15:27.194Z,39.14
2019-03-17T07:18:00.269Z,37.80
2019-03-17T07:20:33.315Z,39.54
2019-03-17T07:23:06.374Z,37.75
2019-03-17T07:25:39.331Z,37.56
2019-03-17T07:28:12.465Z,36.73
2019-03-17T07:30:45.447Z,34.44
2019-03-17T07:33:18.495Z,36.56
2019-03-17T07:35:51.459Z,34.83
2019-03-17T07:38:24.305Z,36.03
2019-03-17T07:40:57.370Z,34.75
2019-03-17T07:43:30.252Z,33.67
2019-03-17T07:46:03.199Z,33.44
2019-03-17T07:48:36.100Z,33.70
2019-03-17T07:51:09.267Z,32.71
2019-03-17T07:53:42.156Z,34.58
2019-03-17T07:56:15.056Z,33.73
2019-03-17T07:58:47.938Z,34.53
2019-03-17T08:01:20.867Z,34.27
2019-03-17T08:03:53.711Z,32.62
2019-03-17T08:06:26.092Z,33.76
2019-03-17T08:08:58.955Z,31.46
2019-03-17T08:11:32.930Z,32.69
2019-03-17T08:14:05.590Z,33.11
2019-03-17T08:16:37.761Z,33.01
2019-03-17T08:19:10.857Z,32.08
2019-03-17T08:21:43.890Z,31.50
2019-03-17T08:24:16.938Z,30.15
2019-03-17T08:26:50.824Z,27.00
2019-03-17T08:29:23.815Z,30.55
2019-03-17T08:31:56.712Z,28.11
2019-03-17T08:34:30.066Z,29.31
2019-03-17T08:37:02.940Z,30.34
2019-03-17T08:39:36.947Z,29.21
2019-03-17T08:42:10.071Z,30.28
2019-03-17T08:44:43.137Z,29.46
2019-03-17T08:47:16.204Z,32.20
2019-03-17T08:49:49.064Z,33.65
2019-03-17T08:52:24.877Z,33.66
2019-03-17T08:54:57.893Z,32.64
2019-03-17T08:57:30.923Z,32.61
2019-03-17T09:00:04.422Z,33.02
2019-03-17T09:02:40.498Z,31.76
2019-03-17T09:05:13.589Z,34.46
2019-03-17T09:07:46.503Z,31.76
2019-03-17T09:10:19.385Z,31.60
2019-03-17T09:12:52.264Z,32.81
2019-03-17T09:15:25.233Z,34.79
2019-03-17T09:17:58.765Z,32.94
2019-03-17T09:20:31.707Z,29.15
2019-03-17T09:23:04.732Z,31.12
2019-03-17T09:25:37.735Z,30.62
2019-03-17T09:28:10.789Z,34.55
2019-03-17T09:30:43.839Z,31.02
2019-03-17T09:33:16.820Z,31.35
2019-03-17T09:35:49.760Z,31.81
2019-03-17T09:38:22.579Z,34.01
2019-03-17T09:40:55.511Z,34.93
2019-03-17T09:43:28.474Z,33.63
2019-03-17T09:46:01.387Z,34.27
2019-03-17T09:48:35.532Z,34.06
2019-03-17T09:51:08.584Z,32.79
2019-03-17T09:53:41.590Z,31.90
2019-03-17T09:56:14.658Z,33.51
2019-03-17T09:58:47.653Z,32.92
2019-03-17T10:01:19.844Z,31.80
2019-03-17T10:03:52.735Z,33.38
2019-03-17T10:06:25.644Z,33.96
2019-03-17T10:09:00.361Z,33.12
2019-03-17T10:11:33.586Z,36.67
2019-03-17T10:14:06.840Z,38.79
2019-03-17T10:16:39.830Z,40.23
2019-03-17T10:19:12.914Z,38.51
2019-03-17T10:21:46.020Z,41.31
2019-03-17T10:24:19.141Z,38.71
2019-03-17T10:26:52.168Z,40.10
2019-03-17T10:29:25.301Z,41.23
2019-03-17T10:31:57.553Z,41.12
2019-03-17T10:34:30.494Z,38.70
2019-03-17T10:37:05.076Z,43.04
2019-03-17T10:39:38.895Z,41.65
2019-03-17T10:42:11.802Z,40.14
2019-03-17T10:44:44.752Z,40.14
2019-03-17T10:47:17.740Z,42.76
2019-03-17T10:49:50.740Z,43.71
2019-03-17T10:52:23.650Z,42.33
2019-03-17T10:54:56.585Z,44.49
2019-03-17T10:57:29.534Z,44.15
2019-03-17T11:00:02.536Z,42.68
2019-03-17T11:02:35.507Z,46.03
2019-03-17T11:05:08.942Z,42.02
2019-03-17T11:07:41.906Z,42.72
2019-03-17T11:10:15.256Z,40.83
2019-03-17T11:12:48.180Z,41.80
2019-03-17T11:15:21.110Z,42.38
2019-03-17T11:17:54.132Z,42.08
2019-03-17T11:20:27.164Z,40.85
2019-03-17T11:23:00.162Z,42.98
2019-03-17T11:25:33.119Z,40.74
2019-03-17T11:28:06.134Z,41.28
2019-03-17T11:30:38.734Z,39.79
2019-03-17T11:33:11.827Z,41.65
2019-03-17T11:35:44.933Z,43.69
2019-03-17T11:38:17.948Z,42.95
2019-03-17T11:40:50.976Z,41.92
2019-03-17T11:43:23.905Z,38.06
2019-03-17T11:45:56.909Z,37.10
2019-03-17T11:48:29.837Z,37.19
2019-03-17T11:51:02.995Z,36.04
2019-03-17T11:53:35.926Z,36.26
2019-03-17T11:56:09.034Z,35.98
2019-03-17T11:58:41.904Z,34.82
2019-03-17T12:01:17.795Z,35.86
2019-03-17T12:03:49.343Z,34.53
2019-03-17T12:06:22.359Z,36.14
2019-03-17T12:08:55.601Z,35.57
2019-03-17T12:11:27.832Z,35.96
2019-03-17T12:14:00.697Z,36.43
2019-03-17T12:16:33.665Z,37.75
2019-03-17T12:19:06.508Z,36.21
2019-03-17T12:21:39.446Z,36.19
2019-03-17T12:24:12.447Z,35.77
2019-03-17T12:26:47.552Z,37.00
2019-03-17T12:29:23.491Z,36.82
2019-03-17T12:31:56.412Z,40.42
2019-03-17T12:34:29.320Z,43.24
2019-03-17T12:37:04.323Z,45.81
2019-03-17T12:39:37.327Z,47.66
2019-03-17T12:42:10.378Z,48.00
2019-03-17T12:44:43.413Z,47.45
2019-03-17T12:47:16.290Z,49.20
2019-03-17T12:49:49.338Z,47.06
2019-03-17T12:52:22.341Z,48.18
2019-03-17T12:54:55.307Z,48.02
2019-03-17T12:57:28.314Z,47.19
2019-03-17T13:00:01.340Z,44.70
2019-03-17T13:02:34.217Z,45.17
2019-03-17T13:05:07.476Z,45.89
2019-03-17T13:07:40.466Z,45.35
2019-03-17T13:10:16.438Z,44.16
2019-03-17T13:12:49.851Z,44.91
2019-03-17T13:15:22.821Z,43.63
2019-03-17T13:17:55.886Z,45.38
2019-03-17T13:20:29.934Z,42.99
2019-03-17T13:23:03.235Z,46.18
2019-03-17T13:25:36.046Z,45.31
2019-03-17T13:28:09.154Z,47.44
2019-03-17T13:30:42.149Z,48.53
2019-03-17T13:33:17.577Z,51.75
2019-03-17T13:35:50.605Z,52.77
2019-03-17T13:38:23.625Z,55.33
2019-03-17T13:40:56.582Z,56.76
2019-03-17T13:43:29.507Z,56.73
2019-03-17T13:46:02.377Z,57.52
2019-03-17T13:48:35.474Z,58.41
2019-03-17T13:51:08.427Z,58.70
2019-03-17T13:53:41.359Z,60.43
2019-03-17T13:56:14.472Z,61.93
2019-03-17T13:58:47.412Z,62.59
2019-03-17T14:01:20.473Z,65.14
2019-03-17T14:03:54.940Z,66.18
2019-03-17T14:06:28.141Z,68.23
2019-03-17T14:09:01.385Z,72.55
2019-03-17T14:11:34.432Z,75.72
2019-03-17T14:14:07.374Z,80.19
2019-03-17T14:16:40.139Z,78.23
2019-03-17T14:19:12.882Z,80.30
2019-03-17T14:21:45.765Z,81.63
2019-03-17T14:24:18.540Z,82.33
2019-03-17T14:26:51.402Z,84.08
2019-03-17T14:29:24.296Z,82.77
2019-03-17T14:31:57.561Z,83.45
2019-03-17T14:34:30.475Z,84.08
2019-03-17T14:37:03.381Z,83.76
2019-03-17T14:39:36.386Z,83.01
2019-03-17T14:42:09.243Z,84.44
2019-03-17T14:44:41.979Z,84.46
2019-03-17T14:47:14.886Z,83.50
2019-03-17T14:49:50.539Z,83.87
2019-03-17T14:52:23.533Z,82.03
2019-03-17T14:54:56.297Z,82.03
2019-03-17T14:57:29.251Z,82.25
2019-03-17T15:00:02.088Z,83.65
2019-03-17T15:02:35.007Z,84.17
2019-03-17T15:05:08.575Z,84.85
2019-03-17T15:07:41.491Z,83.17
2019-03-17T15:10:16.904Z,84.30
2019-03-17T15:12:50.009Z,83.45
2019-03-17T15:15:23.179Z,84.68
2019-03-17T15:17:56.077Z,84.54
2019-03-17T15:20:28.458Z,85.34
2019-03-17T15:23:01.310Z,83.95
2019-03-17T15:25:37.071Z,84.55
2019-03-17T15:28:10.033Z,85.05
2019-03-17T15:30:42.970Z,84.87
2019-03-17T15:33:15.989Z,84.32
2019-03-17T15:35:48.826Z,83.95
2019-03-17T15:38:21.609Z,84.06
2019-03-17T15:40:54.659Z,85.19
2019-03-17T15:43:27.619Z,85.19
2019-03-17T15:46:00.511Z,84.57
2019-03-17T15:48:33.474Z,85.56
2019-03-17T15:51:19.176Z,85.83
2019-03-17T15:53:42.723Z,85.40
2019-03-17T15:56:15.033Z,84.60
2019-03-17T15:58:47.961Z,84.87
2019-03-17T16:01:20.533Z,84.75
2019-03-17T16:03:53.673Z,84.83
2019-03-17T16:06:26.692Z,85.03
2019-03-17T16:08:59.467Z,85.48
2019-03-17T16:11:32.393Z,85.14
2019-03-17T16:14:05.811Z,85.81
2019-03-17T16:16:38.903Z,85.91
2019-03-17T16:19:12.774Z,86.93
2019-03-17T16:21:45.687Z,86.34
2019-03-17T16:24:18.677Z,86.51
2019-03-17T16:26:52.627Z,86.50
2019-03-17T16:29:25.677Z,86.23
2019-03-17T16:31:58.700Z,86.62
2019-03-17T16:34:30.867Z,86.28
2019-03-17T16:37:03.758Z,85.84
2019-03-17T16:39:36.878Z,86.14
2019-03-17T16:42:09.417Z,86.09
2019-03-17T16:44:42.348Z,86.24
2019-03-17T16:47:15.017Z,85.78
2019-03-17T16:49:48.283Z,85.32
2019-03-17T16:52:21.260Z,86.02
2019-03-17T16:54:54.332Z,85.83
2019-03-17T16:57:27.652Z,85.48
2019-03-17T17:00:00.527Z,84.48
2019-03-17T17:02:33.950Z,85.42
2019-03-17T17:05:08.980Z,84.57
2019-03-17T17:07:42.044Z,85.35
2019-03-17T17:10:16.913Z,85.90
2019-03-17T17:12:50.089Z,86.21
2019-03-17T17:15:24.653Z,86.01
2019-03-17T17:17:57.578Z,86.02
2019-03-17T17:20:30.911Z,86.98
2019-03-17T17:23:03.828Z,86.65
2019-03-17T17:25:36.756Z,87.06
2019-03-17T17:28:09.767Z,87.04
2019-03-17T17:30:42.715Z,87.10
2019-03-17T17:33:15.323Z,86.92
2019-03-17T17:35:48.273Z,87.25
2019-03-17T17:38:21.202Z,87.11
2019-03-17T17:40:54.215Z,86.46
2019-03-17T17:43:27.305Z,86.68
2019-03-17T17:46:00.649Z,86.95
2019-03-17T17:48:33.816Z,87.28
2019-03-17T17:51:06.785Z,87.70
2019-03-17T17:53:39.907Z,87.44
2019-03-17T17:56:12.935Z,87.96
2019-03-17T17:58:45.920Z,87.94
2019-03-17T18:01:21.102Z,88.18
2019-03-17T18:03:56.371Z,88.37
2019-03-17T18:06:29.221Z,88.12
2019-03-17T18:09:02.127Z,88.19
2019-03-17T18:11:35.303Z,88.21
2019-03-17T18:14:08.267Z,88.32
2019-03-17T18:16:41.830Z,86.79
2019-03-17T18:19:16.443Z,87.31
2019-03-17T18:21:49.576Z,86.93
2019-03-17T18:24:22.519Z,87.41
2019-03-17T18:26:55.413Z,87.44
2019-03-17T18:29:28.378Z,87.69
2019-03-17T18:32:01.339Z,88.42
2019-03-17T18:34:36.656Z,88.59
2019-03-17T18:37:10.107Z,88.56
2019-03-17T18:39:42.910Z,88.47
2019-03-17T18:42:15.942Z,87.58
2019-03-17T18:44:48.947Z,87.04
2019-03-17T18:47:22.065Z,86.54
2019-03-17T18:49:55.476Z,85.91
2019-03-17T18:52:28.315Z,85.04
2019-03-17T18:55:00.816Z,85.43
2019-03-17T18:57:37.404Z,84.15
2019-03-17T19:00:13.853Z,84.78
2019-03-17T19:02:47.047Z,85.24
2019-03-17T19:05:20.580Z,85.21
2019-03-17T19:07:53.621Z,84.82
2019-03-17T19:10:26.533Z,85.76
2019-03-17T19:12:59.458Z,85.49
2019-03-17T19:15:32.305Z,84.57
2019-03-17T19:18:05.189Z,84.21
2019-03-17T19:20:38.104Z,85.84
2019-03-17T19:23:11.135Z,85.07
2019-03-17T19:25:44.243Z,84.57
2019-03-17T19:28:17.152Z,85.17
2019-03-17T19:30:50.178Z,85.79
2019-03-17T19:33:23.085Z,82.79
2019-03-17T19:35:59.295Z,83.86
2019-03-17T19:38:32.188Z,84.58
2019-03-17T19:41:05.201Z,84.77
2019-03-17T19:43:38.168Z,84.43
2019-03-17T19:46:11.341Z,85.25
2019-03-17T19:48:47.419Z,85.81
2019-03-17T19:51:20.321Z,85.68
2019-03-17T19:53:53.275Z,84.62
2019-03-17T19:56:26.284Z,84.49
2019-03-17T19:58:59.221Z,84.09
2019-03-17T20:01:32.258Z,85.19
2019-03-17T20:04:05.382Z,86.41
2019-03-17T20:06:38.413Z,86.90
2019-03-17T20:09:11.987Z,87.16
2019-03-17T20:11:44.556Z,86.24
2019-03-17T20:14:17.967Z,85.85
2019-03-17T20:16:50.926Z,86.00
2019-03-17T20:19:23.030Z,83.63
2019-03-17T20:21:56.067Z,82.76
2019-03-17T20:24:29.148Z,83.01
2019-03-17T20:27:02.079Z,82.99
2019-03-17T20:29:35.023Z,83.15
2019-03-17T20:32:08.223Z,83.10
2019-03-17T20:34:40.586Z,83.35
2019-03-17T20:37:13.458Z,84.33
2019-03-17T20:39:46.611Z,85.09
2019-03-17T20:42:19.585Z,85.64
2019-03-17T20:44:52.573Z,86.06
2019-03-17T20:47:25.674Z,86.63
2019-03-17T20:49:58.761Z,86.91
2019-03-17T20:52:31.687Z,87.55
2019-03-17T20:55:04.879Z,87.38
2019-03-17T20:57:37.721Z,86.83
2019-03-17T21:00:13.225Z,87.61
2019-03-17T21:02:45.770Z,87.17
2019-03-17T21:05:18.713Z,86.89
2019-03-17T21:07:51.215Z,87.14
2019-03-17T21:10:24.160Z,87.44
2019-03-17T21:12:57.378Z,87.44
2019-03-17T21:15:30.368Z,87.66
2019-03-17T21:18:03.234Z,87.43
2019-03-17T21:20:36.137Z,87.66
2019-03-17T21:23:09.142Z,87.95
2019-03-17T21:25:41.986Z,88.07
2019-03-17T21:28:15.141Z,88.27
2019-03-17T21:30:48.103Z,88.41
2019-03-17T21:33:21.091Z,88.79
2019-03-17T21:35:53.992Z,89.28
2019-03-17T21:38:26.949Z,89.39
2019-03-17T23:22:30.123Z,92.89
2019-03-17T23:25:03.216Z,92.92
2019-03-17T23:27:36.146Z,92.93
2019-03-17T23:30:10.082Z,92.90
2019-03-17T23:32:42.247Z,92.84
2019-03-17T23:35:15.326Z,92.82
2019-03-17T23:37:48.259Z,92.74
2019-03-17T23:40:21.225Z,92.75
2019-03-17T23:42:54.226Z,92.70
2019-03-17T23:45:27.093Z,92.49
2019-03-17T23:48:00.059Z,92.51
2019-03-17T23:50:32.921Z,92.43
2019-03-17T23:53:05.129Z,92.46
2019-03-17T23:55:38.021Z,92.45
2019-03-17T23:58:11.101Z,92.45
